Ocotillo, California
Current Conditions -  °F | °C
As of 6:56 PM on Saturday 22 Nov 2014 (Local Time) from KNJK Reporting Station
Clear Clear  
Wind Chill: 22°   Ceiling: Unl
Heat Index: 22°   Visibility: 10mi
Dew Point:   Wind: 15mph
Humidity: 31%   Direction: 230°SW
Pressure: 29.89"   Gusts: NA
Location:  32.74°N, 115.99°W
Report Text: KNJK 230256Z AUTO 23013KT 10SM CLR 22/04 A2989 RMK AO2 SLP138 T02170039 53002 PWINO $
Loading
Personal Weather Stations






























Interactive Weather Map New forecast layout! Learn more

10-Day Weather Forecast

Advertisements
Track Severe Weather on mobile